sensor_id;sensor_type;location;lat;lon;timestamp;pressure;altitude;pressure_sealevel;temperature
77223;BMP280;66218;48.928;9.140;2023-06-05T00:00:21;98649.91;;;15.66
77223;BMP280;66218;48.928;9.140;2023-06-05T00:02:46;98648.47;;;15.63
77223;BMP280;66218;48.928;9.140;2023-06-05T00:05:12;98647.72;;;15.58
77223;BMP280;66218;48.928;9.140;2023-06-05T00:07:38;98643.47;;;15.51
77223;BMP280;66218;48.928;9.140;2023-06-05T00:10:05;98650.38;;;15.46
77223;BMP280;66218;48.928;9.140;2023-06-05T00:12:31;98650.38;;;15.46
77223;BMP280;66218;48.928;9.140;2023-06-05T00:14:56;98644.03;;;15.35
77223;BMP280;66218;48.928;9.140;2023-06-05T00:17:21;98656.50;;;15.32
77223;BMP280;66218;48.928;9.140;2023-06-05T00:19:47;98656.50;;;15.32
77223;BMP280;66218;48.928;9.140;2023-06-05T00:22:13;98658.53;;;15.26
77223;BMP280;66218;48.928;9.140;2023-06-05T00:24:38;98657.78;;;15.23
77223;BMP280;66218;48.928;9.140;2023-06-05T00:27:04;98652.19;;;15.21
77223;BMP280;66218;48.928;9.140;2023-06-05T00:29:30;98646.63;;;15.19
77223;BMP280;66218;48.928;9.140;2023-06-05T00:31:55;98652.16;;;15.17
77223;BMP280;66218;48.928;9.140;2023-06-05T00:34:20;98652.16;;;15.17
77223;BMP280;66218;48.928;9.140;2023-06-05T00:36:46;98642.34;;;15.10
77223;BMP280;66218;48.928;9.140;2023-06-05T00:39:15;98650.72;;;15.14
77223;BMP280;66218;48.928;9.140;2023-06-05T00:41:40;98650.72;;;15.14
77223;BMP280;66218;48.928;9.140;2023-06-05T00:44:07;98636.75;;;15.08
77223;BMP280;66218;48.928;9.140;2023-06-05T00:46:32;98642.97;;;15.04
77223;BMP280;66218;48.928;9.140;2023-06-05T00:48:58;98644.31;;;15.01
77223;BMP280;66218;48.928;9.140;2023-06-05T00:51:23;98650.47;;;14.94
77223;BMP280;66218;48.928;9.140;2023-06-05T00:53:49;98639.31;;;14.90
77223;BMP280;66218;48.928;9.140;2023-06-05T00:56:15;98645.53;;;14.86
77223;BMP280;66218;48.928;9.140;2023-06-05T00:58:46;98642.66;;;14.80
77223;BMP280;66218;48.928;9.140;2023-06-05T01:01:12;98648.19;;;14.78
77223;BMP280;66218;48.928;9.140;2023-06-05T01:03:40;98644.00;;;14.75
77223;BMP280;66218;48.928;9.140;2023-06-05T01:06:05;98649.47;;;14.71
77223;BMP280;66218;48.928;9.140;2023-06-05T01:08:32;98655.69;;;14.69
77223;BMP280;66218;48.928;9.140;2023-06-05T01:11:06;98655.69;;;14.69
77223;BMP280;66218;48.928;9.140;2023-06-05T01:13:34;98646.59;;;14.63
77223;BMP280;66218;48.928;9.140;2023-06-05T01:16:00;98645.19;;;14.62
77223;BMP280;66218;48.928;9.140;2023-06-05T01:18:29;98641.69;;;14.59
77223;BMP280;66218;48.928;9.140;2023-06-05T01:21:00;98638.84;;;14.55
77223;BMP280;66218;48.928;9.140;2023-06-05T01:23:26;98643.69;;;14.52
77223;BMP280;66218;48.928;9.140;2023-06-05T01:25:58;98636.00;;;14.49
77223;BMP280;66218;48.928;9.140;2023-06-05T01:28:28;98643.56;;;14.46
77223;BMP280;66218;48.928;9.140;2023-06-05T01:31:09;98642.13;;;14.41
77223;BMP280;66218;48.928;9.140;2023-06-05T01:33:50;98639.28;;;14.37
77223;BMP280;66218;48.928;9.140;2023-06-05T01:36:17;98646.91;;;14.37
77223;BMP280;66218;48.928;9.140;2023-06-05T01:38:44;98643.34;;;14.30
77223;BMP280;66218;48.928;9.140;2023-06-05T01:41:11;98648.09;;;14.23
77223;BMP280;66218;48.928;9.140;2023-06-05T01:43:38;98655.66;;;14.19
77223;BMP280;66218;48.928;9.140;2023-06-05T01:46:05;98638.25;;;14.14
77223;BMP280;66218;48.928;9.140;2023-06-05T01:48:33;98648.66;;;14.14
77223;BMP280;66218;48.928;9.140;2023-06-05T01:50:58;98648.59;;;14.12
77223;BMP280;66218;48.928;9.140;2023-06-05T01:53:25;98643.03;;;14.10
77223;BMP280;66218;48.928;9.140;2023-06-05T01:55:51;98642.97;;;14.06
77223;BMP280;66218;48.928;9.140;2023-06-05T01:58:22;98644.31;;;14.03
77223;BMP280;66218;48.928;9.140;2023-06-05T02:00:47;98640.84;;;14.02
77223;BMP280;66218;48.928;9.140;2023-06-05T02:03:13;98642.84;;;14.00
77223;BMP280;66218;48.928;9.140;2023-06-05T02:05:41;98642.84;;;14.00
77223;BMP280;66218;48.928;9.140;2023-06-05T02:08:06;98642.13;;;13.97
77223;BMP280;66218;48.928;9.140;2023-06-05T02:10:38;98637.91;;;13.94
77223;BMP280;66218;48.928;9.140;2023-06-05T02:13:05;98637.91;;;13.94
77223;BMP280;66218;48.928;9.140;2023-06-05T02:15:31;98632.97;;;13.90
77223;BMP280;66218;48.928;9.140;2023-06-05T02:17:59;98632.97;;;13.90
77223;BMP280;66218;48.928;9.140;2023-06-05T02:20:25;98631.47;;;13.83
77223;BMP280;66218;48.928;9.140;2023-06-05T02:22:51;98628.69;;;13.81
77223;BMP280;66218;48.928;9.140;2023-06-05T02:25:17;98627.22;;;13.76
77223;BMP280;66218;48.928;9.140;2023-06-05T02:27:43;98627.13;;;13.72
77223;BMP280;66218;48.928;9.140;2023-06-05T02:30:09;98627.78;;;13.69
77223;BMP280;66218;48.928;9.140;2023-06-05T02:32:35;98631.19;;;13.65
77223;BMP280;66218;48.928;9.140;2023-06-05T02:35:01;98626.91;;;13.60
77223;BMP280;66218;48.928;9.140;2023-06-05T02:37:28;98637.94;;;13.56
77223;BMP280;66218;48.928;9.140;2023-06-05T02:39:54;98639.91;;;13.49
77223;BMP280;66218;48.928;9.140;2023-06-05T02:42:19;98635.66;;;13.46
77223;BMP280;66218;48.928;9.140;2023-06-05T02:44:45;98639.78;;;13.43
77223;BMP280;66218;48.928;9.140;2023-06-05T02:47:11;98641.78;;;13.39
77223;BMP280;66218;48.928;9.140;2023-06-05T02:49:36;98641.78;;;13.39
77223;BMP280;66218;48.928;9.140;2023-06-05T02:52:03;98638.09;;;13.28
77223;BMP280;66218;48.928;9.140;2023-06-05T02:54:28;98640.06;;;13.23
77223;BMP280;66218;48.928;9.140;2023-06-05T02:56:54;98631.66;;;13.17
77223;BMP280;66218;48.928;9.140;2023-06-05T02:59:24;98632.25;;;13.12
77223;BMP280;66218;48.928;9.140;2023-06-05T03:01:50;98625.94;;;13.09
77223;BMP280;66218;48.928;9.140;2023-06-05T03:04:16;98630.72;;;13.04
77223;BMP280;66218;48.928;9.140;2023-06-05T03:06:49;98627.91;;;13.02
77223;BMP280;66218;48.928;9.140;2023-06-05T03:09:15;98635.50;;;13.02
77223;BMP280;66218;48.928;9.140;2023-06-05T03:11:41;98635.50;;;13.02
77223;BMP280;66218;48.928;9.140;2023-06-05T03:14:06;98635.34;;;12.94
77223;BMP280;66218;48.928;9.140;2023-06-05T03:16:31;98631.13;;;12.91
77223;BMP280;66218;48.928;9.140;2023-06-05T03:19:08;98632.47;;;12.90
77223;BMP280;66218;48.928;9.140;2023-06-05T03:21:35;98621.34;;;12.86
77223;BMP280;66218;48.928;9.140;2023-06-05T03:24:01;98626.88;;;12.88
77223;BMP280;66218;48.928;9.140;2023-06-05T03:26:27;98632.47;;;12.90
77223;BMP280;66218;48.928;9.140;2023-06-05T03:28:52;98629.72;;;12.90
77223;BMP280;66218;48.928;9.140;2023-06-05T03:31:18;98634.06;;;13.01
77223;BMP280;66218;48.928;9.140;2023-06-05T03:33:44;98638.28;;;13.02
77223;BMP280;66218;48.928;9.140;2023-06-05T03:36:09;98638.28;;;13.02
77223;BMP280;66218;48.928;9.140;2023-06-05T03:38:34;98631.94;;;12.97
77223;BMP280;66218;48.928;9.140;2023-06-05T03:40:59;98641.97;;;13.13
77223;BMP280;66218;48.928;9.140;2023-06-05T03:43:25;98641.34;;;13.16
77223;BMP280;66218;48.928;9.140;2023-06-05T03:45:50;98643.63;;;13.26
77223;BMP280;66218;48.928;9.140;2023-06-05T03:48:17;98647.22;;;13.32
77223;BMP280;66218;48.928;9.140;2023-06-05T03:50:45;98647.50;;;13.49
77223;BMP280;66218;48.928;9.140;2023-06-05T03:53:11;98647.16;;;13.67
77223;BMP280;66218;48.928;9.140;2023-06-05T03:55:39;98648.53;;;14.08
77223;BMP280;66218;48.928;9.140;2023-06-05T03:58:14;98660.59;;;14.71
77223;BMP280;66218;48.928;9.140;2023-06-05T04:00:44;98661.09;;;15.76
77223;BMP280;66218;48.928;9.140;2023-06-05T04:03:10;98655.97;;;16.33
77223;BMP280;66218;48.928;9.140;2023-06-05T04:05:36;98663.78;;;16.59
77223;BMP280;66218;48.928;9.140;2023-06-05T04:08:02;98655.09;;;17.44
77223;BMP280;66218;48.928;9.140;2023-06-05T04:10:28;98668.31;;;18.55
77223;BMP280;66218;48.928;9.140;2023-06-05T04:12:53;98667.84;;;19.50
77223;BMP280;66218;48.928;9.140;2023-06-05T04:15:20;98672.13;;;20.23
77223;BMP280;66218;48.928;9.140;2023-06-05T04:17:45;98676.13;;;21.02
77223;BMP280;66218;48.928;9.140;2023-06-05T04:20:11;98668.25;;;21.60
77223;BMP280;66218;48.928;9.140;2023-06-05T04:22:42;98682.09;;;22.50
77223;BMP280;66218;48.928;9.140;2023-06-05T04:25:08;98678.88;;;23.34
77223;BMP280;66218;48.928;9.140;2023-06-05T04:27:36;98676.47;;;24.77
77223;BMP280;66218;48.928;9.140;2023-06-05T04:30:02;98685.69;;;25.44
77223;BMP280;66218;48.928;9.140;2023-06-05T04:32:28;98686.94;;;26.31
77223;BMP280;66218;48.928;9.140;2023-06-05T04:34:54;98696.53;;;26.77
77223;BMP280;66218;48.928;9.140;2023-06-05T04:37:19;98691.97;;;27.03
77223;BMP280;66218;48.928;9.140;2023-06-05T04:39:45;98691.31;;;27.36
77223;BMP280;66218;48.928;9.140;2023-06-05T04:42:10;98689.69;;;27.75
77223;BMP280;66218;48.928;9.140;2023-06-05T04:44:35;98679.81;;;28.22
77223;BMP280;66218;48.928;9.140;2023-06-05T04:47:02;98680.03;;;28.93
77223;BMP280;66218;48.928;9.140;2023-06-05T04:49:31;98685.59;;;29.25
77223;BMP280;66218;48.928;9.140;2023-06-05T04:51:56;98679.81;;;29.69
77223;BMP280;66218;48.928;9.140;2023-06-05T04:54:22;98685.22;;;30.27
77223;BMP280;66218;48.928;9.140;2023-06-05T04:56:47;98682.75;;;30.34
77223;BMP280;66218;48.928;9.140;2023-06-05T04:59:14;98685.25;;;30.78
77223;BMP280;66218;48.928;9.140;2023-06-05T05:01:40;98696.63;;;31.52
77223;BMP280;66218;48.928;9.140;2023-06-05T05:04:06;98687.03;;;31.58
77223;BMP280;66218;48.928;9.140;2023-06-05T05:06:31;98692.94;;;31.90
77223;BMP280;66218;48.928;9.140;2023-06-05T05:08:56;98690.78;;;31.90
77223;BMP280;66218;48.928;9.140;2023-06-05T05:11:22;98693.84;;;31.86
77223;BMP280;66218;48.928;9.140;2023-06-05T05:13:47;98694.56;;;29.86
77223;BMP280;66218;48.928;9.140;2023-06-05T05:16:12;98689.00;;;27.91
77223;BMP280;66218;48.928;9.140;2023-06-05T05:18:39;98703.81;;;26.14
77223;BMP280;66218;48.928;9.140;2023-06-05T05:21:04;98690.41;;;24.34
77223;BMP280;66218;48.928;9.140;2023-06-05T05:23:30;98698.13;;;23.24
77223;BMP280;66218;48.928;9.140;2023-06-05T05:25:55;98698.78;;;22.23
77223;BMP280;66218;48.928;9.140;2023-06-05T05:28:21;98687.41;;;21.47
77223;BMP280;66218;48.928;9.140;2023-06-05T05:30:46;98693.38;;;21.25
77223;BMP280;66218;48.928;9.140;2023-06-05T05:33:12;98688.41;;;20.74
77223;BMP280;66218;48.928;9.140;2023-06-05T05:35:37;98697.88;;;20.40
77223;BMP280;66218;48.928;9.140;2023-06-05T05:38:02;98699.44;;;20.29
77223;BMP280;66218;48.928;9.140;2023-06-05T05:40:27;98695.50;;;19.99
77223;BMP280;66218;48.928;9.140;2023-06-05T05:42:53;98703.38;;;19.72
77223;BMP280;66218;48.928;9.140;2023-06-05T05:45:18;98688.78;;;19.60
77223;BMP280;66218;48.928;9.140;2023-06-05T05:47:43;98695.22;;;19.34
77223;BMP280;66218;48.928;9.140;2023-06-05T05:50:09;98697.38;;;19.25
77223;BMP280;66218;48.928;9.140;2023-06-05T05:52:35;98688.94;;;19.35
77223;BMP280;66218;48.928;9.140;2023-06-05T05:55:00;98698.69;;;19.40
77223;BMP280;66218;48.928;9.140;2023-06-05T05:57:28;98697.28;;;19.43
77223;BMP280;66218;48.928;9.140;2023-06-05T05:59:53;98702.19;;;19.41
77223;BMP280;66218;48.928;9.140;2023-06-05T06:02:19;98703.53;;;19.52
77223;BMP280;66218;48.928;9.140;2023-06-05T06:04:45;98703.56;;;19.44
77223;BMP280;66218;48.928;9.140;2023-06-05T06:07:11;98702.84;;;19.49
77223;BMP280;66218;48.928;9.140;2023-06-05T06:09:37;98697.25;;;19.47
77223;BMP280;66218;48.928;9.140;2023-06-05T06:12:03;98704.97;;;19.45
77223;BMP280;66218;48.928;9.140;2023-06-05T06:14:31;98695.13;;;19.52
77223;BMP280;66218;48.928;9.140;2023-06-05T06:16:57;98697.19;;;19.58
77223;BMP280;66218;48.928;9.140;2023-06-05T06:19:23;98702.75;;;19.64
77223;BMP280;66218;48.928;9.140;2023-06-05T06:21:49;98702.16;;;19.49
77223;BMP280;66218;48.928;9.140;2023-06-05T06:24:17;98700.06;;;19.52
77223;BMP280;66218;48.928;9.140;2023-06-05T06:26:45;98701.38;;;19.59
77223;BMP280;66218;48.928;9.140;2023-06-05T06:29:14;98698.53;;;19.69
77223;BMP280;66218;48.928;9.140;2023-06-05T06:31:39;98696.97;;;20.60
77223;BMP280;66218;48.928;9.140;2023-06-05T06:34:05;98705.63;;;23.35
77223;BMP280;66218;48.928;9.140;2023-06-05T06:36:30;98704.72;;;25.87
77223;BMP280;66218;48.928;9.140;2023-06-05T06:38:55;98704.44;;;27.27
77223;BMP280;66218;48.928;9.140;2023-06-05T06:41:21;98708.22;;;28.05
77223;BMP280;66218;48.928;9.140;2023-06-05T06:43:47;98709.47;;;27.43
77223;BMP280;66218;48.928;9.140;2023-06-05T06:46:12;98716.31;;;26.40
77223;BMP280;66218;48.928;9.140;2023-06-05T06:48:38;98713.13;;;25.25
77223;BMP280;66218;48.928;9.140;2023-06-05T06:51:03;98713.47;;;24.42
77223;BMP280;66218;48.928;9.140;2023-06-05T06:53:29;98709.53;;;23.77
77223;BMP280;66218;48.928;9.140;2023-06-05T06:55:54;98707.75;;;23.35
77223;BMP280;66218;48.928;9.140;2023-06-05T06:58:20;98706.06;;;22.82
77223;BMP280;66218;48.928;9.140;2023-06-05T07:00:45;98709.50;;;22.52
77223;BMP280;66218;48.928;9.140;2023-06-05T07:03:12;98707.91;;;22.24
77223;BMP280;66218;48.928;9.140;2023-06-05T07:05:37;98701.81;;;22.11
77223;BMP280;66218;48.928;9.140;2023-06-05T07:08:03;98706.97;;;21.96
77223;BMP280;66218;48.928;9.140;2023-06-05T07:10:28;98704.31;;;21.88
77223;BMP280;66218;48.928;9.140;2023-06-05T07:12:54;98703.72;;;21.82
77223;BMP280;66218;48.928;9.140;2023-06-05T07:15:20;98703.31;;;21.63
77223;BMP280;66218;48.928;9.140;2023-06-05T07:17:45;98702.34;;;21.81
77223;BMP280;66218;48.928;9.140;2023-06-05T07:20:11;98703.22;;;21.69
77223;BMP280;66218;48.928;9.140;2023-06-05T07:22:41;98713.88;;;21.62
77223;BMP280;66218;48.928;9.140;2023-06-05T07:25:07;98704.47;;;21.78
77223;BMP280;66218;48.928;9.140;2023-06-05T07:27:32;98711.47;;;21.79
77223;BMP280;66218;48.928;9.140;2023-06-05T07:29:58;98700.16;;;21.85
77223;BMP280;66218;48.928;9.140;2023-06-05T07:32:24;98702.72;;;21.99
77223;BMP280;66218;48.928;9.140;2023-06-05T07:34:50;98705.09;;;22.24
77223;BMP280;66218;48.928;9.140;2023-06-05T07:37:16;98706.28;;;22.35
77223;BMP280;66218;48.928;9.140;2023-06-05T07:39:41;98704.06;;;22.41
77223;BMP280;66218;48.928;9.140;2023-06-05T07:42:06;98701.13;;;22.48
77223;BMP280;66218;48.928;9.140;2023-06-05T07:44:32;98687.72;;;22.50
77223;BMP280;66218;48.928;9.140;2023-06-05T07:46:57;98701.78;;;22.50
77223;BMP280;66218;48.928;9.140;2023-06-05T07:49:24;98697.34;;;22.61
77223;BMP280;66218;48.928;9.140;2023-06-05T07:51:49;98695.31;;;22.58
77223;BMP280;66218;48.928;9.140;2023-06-05T07:54:16;98697.41;;;22.59
77223;BMP280;66218;48.928;9.140;2023-06-05T07:56:42;98692.13;;;22.76
77223;BMP280;66218;48.928;9.140;2023-06-05T07:59:08;98699.19;;;22.75
77223;BMP280;66218;48.928;9.140;2023-06-05T08:01:34;98694.03;;;22.86
77223;BMP280;66218;48.928;9.140;2023-06-05T08:04:04;98691.88;;;22.88
77223;BMP280;66218;48.928;9.140;2023-06-05T08:06:29;98692.22;;;23.05
77223;BMP280;66218;48.928;9.140;2023-06-05T08:08:55;98689.44;;;23.03
77223;BMP280;66218;48.928;9.140;2023-06-05T08:11:21;98692.94;;;23.03
77223;BMP280;66218;48.928;9.140;2023-06-05T08:13:46;98695.44;;;23.18
77223;BMP280;66218;48.928;9.140;2023-06-05T08:16:12;98693.47;;;23.43
77223;BMP280;66218;48.928;9.140;2023-06-05T08:18:37;98680.81;;;23.71
77223;BMP280;66218;48.928;9.140;2023-06-05T08:21:03;98694.59;;;23.54
77223;BMP280;66218;48.928;9.140;2023-06-05T08:23:28;98696.13;;;23.49
77223;BMP280;66218;48.928;9.140;2023-06-05T08:25:54;98684.16;;;23.48
77223;BMP280;66218;48.928;9.140;2023-06-05T08:28:19;98683.88;;;23.61
77223;BMP280;66218;48.928;9.140;2023-06-05T08:30:44;98687.91;;;23.68
77223;BMP280;66218;48.928;9.140;2023-06-05T08:33:10;98685.50;;;23.52
77223;BMP280;66218;48.928;9.140;2023-06-05T08:35:35;98680.19;;;23.66
77223;BMP280;66218;48.928;9.140;2023-06-05T08:38:02;98678.72;;;23.69
77223;BMP280;66218;48.928;9.140;2023-06-05T08:40:28;98681.16;;;23.83
77223;BMP280;66218;48.928;9.140;2023-06-05T08:42:54;98679.44;;;23.97
77223;BMP280;66218;48.928;9.140;2023-06-05T08:45:20;98678.00;;;23.98
77223;BMP280;66218;48.928;9.140;2023-06-05T08:47:49;98677.56;;;24.14
77223;BMP280;66218;48.928;9.140;2023-06-05T08:50:15;98676.59;;;24.48
77223;BMP280;66218;48.928;9.140;2023-06-05T08:52:42;98678.88;;;24.67
77223;BMP280;66218;48.928;9.140;2023-06-05T08:55:08;98675.34;;;24.91
77223;BMP280;66218;48.928;9.140;2023-06-05T08:57:35;98674.75;;;25.32
77223;BMP280;66218;48.928;9.140;2023-06-05T09:00:05;98678.97;;;25.33
77223;BMP280;66218;48.928;9.140;2023-06-05T09:02:40;98682.59;;;25.30
77223;BMP280;66218;48.928;9.140;2023-06-05T09:05:08;98672.75;;;25.29
77223;BMP280;66218;48.928;9.140;2023-06-05T09:07:34;98671.13;;;25.13
77223;BMP280;66218;48.928;9.140;2023-06-05T09:09:59;98669.41;;;25.22
77223;BMP280;66218;48.928;9.140;2023-06-05T09:12:25;98672.03;;;25.07
77223;BMP280;66218;48.928;9.140;2023-06-05T09:14:51;98665.72;;;25.05
77223;BMP280;66218;48.928;9.140;2023-06-05T09:17:16;98664.88;;;25.10
77223;BMP280;66218;48.928;9.140;2023-06-05T09:19:43;98663.13;;;24.99
77223;BMP280;66218;48.928;9.140;2023-06-05T09:22:10;98656.91;;;24.94
77223;BMP280;66218;48.928;9.140;2023-06-05T09:24:37;98662.72;;;24.88
77223;BMP280;66218;48.928;9.140;2023-06-05T09:27:10;98661.50;;;25.06
77223;BMP280;66218;48.928;9.140;2023-06-05T09:29:40;98673.84;;;24.94
77223;BMP280;66218;48.928;9.140;2023-06-05T09:32:08;98659.09;;;24.69
77223;BMP280;66218;48.928;9.140;2023-06-05T09:34:34;98661.34;;;24.64
77223;BMP280;66218;48.928;9.140;2023-06-05T09:37:02;98660.75;;;24.60
77223;BMP280;66218;48.928;9.140;2023-06-05T09:39:29;98664.06;;;24.66
77223;BMP280;66218;48.928;9.140;2023-06-05T09:41:56;98656.63;;;24.57
77223;BMP280;66218;48.928;9.140;2023-06-05T09:44:23;98660.66;;;24.64
77223;BMP280;66218;48.928;9.140;2023-06-05T09:47:08;98650.75;;;24.65
77223;BMP280;66218;48.928;9.140;2023-06-05T09:52:06;98651.53;;;24.61
77223;BMP280;66218;48.928;9.140;2023-06-05T09:54:32;98651.75;;;24.78
77223;BMP280;66218;48.928;9.140;2023-06-05T09:57:03;98648.66;;;25.09
77223;BMP280;66218;48.928;9.140;2023-06-05T09:59:34;98645.66;;;24.92
77223;BMP280;66218;48.928;9.140;2023-06-05T10:02:02;98638.56;;;25.16
77223;BMP280;66218;48.928;9.140;2023-06-05T10:04:33;98640.28;;;25.07
77223;BMP280;66218;48.928;9.140;2023-06-05T10:07:03;98637.25;;;25.13
77223;BMP280;66218;48.928;9.140;2023-06-05T10:09:30;98636.78;;;25.04
77223;BMP280;66218;48.928;9.140;2023-06-05T10:11:57;98639.25;;;25.16
77223;BMP280;66218;48.928;9.140;2023-06-05T10:14:23;98633.00;;;25.35
77223;BMP280;66218;48.928;9.140;2023-06-05T10:16:49;98633.81;;;25.52
77223;BMP280;66218;48.928;9.140;2023-06-05T10:19:21;98633.09;;;25.53
77223;BMP280;66218;48.928;9.140;2023-06-05T10:21:47;98629.50;;;25.55
77223;BMP280;66218;48.928;9.140;2023-06-05T10:24:22;98624.69;;;25.51
77223;BMP280;66218;48.928;9.140;2023-06-05T10:35:37;98625.13;;;26.18
77223;BMP280;66218;48.928;9.140;2023-06-05T10:38:23;98628.25;;;26.67
77223;BMP280;66218;48.928;9.140;2023-06-05T10:40:57;98618.00;;;26.92
77223;BMP280;66218;48.928;9.140;2023-06-05T10:43:27;98625.09;;;26.75
77223;BMP280;66218;48.928;9.140;2023-06-05T10:45:54;98624.88;;;26.62
77223;BMP280;66218;48.928;9.140;2023-06-05T10:48:19;98628.19;;;26.50
77223;BMP280;66218;48.928;9.140;2023-06-05T10:50:45;98616.72;;;26.54
77223;BMP280;66218;48.928;9.140;2023-06-05T10:53:41;98620.84;;;26.57
77223;BMP280;66218;48.928;9.140;2023-06-05T10:56:07;98612.56;;;26.32
77223;BMP280;66218;48.928;9.140;2023-06-05T10:58:33;98614.63;;;26.34
77223;BMP280;66218;48.928;9.140;2023-06-05T11:03:56;98612.56;;;26.70
77223;BMP280;66218;48.928;9.140;2023-06-05T11:06:22;98596.91;;;26.54
77223;BMP280;66218;48.928;9.140;2023-06-05T11:09:13;98604.56;;;26.39
77223;BMP280;66218;48.928;9.140;2023-06-05T11:11:59;98606.28;;;26.67
77223;BMP280;66218;48.928;9.140;2023-06-05T11:14:46;98608.94;;;26.71
77223;BMP280;66218;48.928;9.140;2023-06-05T11:17:33;98609.13;;;26.30
77223;BMP280;66218;48.928;9.140;2023-06-05T11:19:59;98602.66;;;26.14
77223;BMP280;66218;48.928;9.140;2023-06-05T11:22:25;98606.00;;;26.38
77223;BMP280;66218;48.928;9.140;2023-06-05T11:27:46;98597.34;;;26.60
77223;BMP280;66218;48.928;9.140;2023-06-05T11:30:12;98586.50;;;26.84
77223;BMP280;66218;48.928;9.140;2023-06-05T11:32:38;98595.66;;;27.03
77223;BMP280;66218;48.928;9.140;2023-06-05T11:35:03;98595.66;;;26.84
77223;BMP280;66218;48.928;9.140;2023-06-05T11:37:29;98584.25;;;26.70
77223;BMP280;66218;48.928;9.140;2023-06-05T11:39:58;98584.28;;;26.51
77223;BMP280;66218;48.928;9.140;2023-06-05T11:42:23;98576.19;;;26.41
77223;BMP280;66218;48.928;9.140;2023-06-05T11:44:48;98585.88;;;26.46
77223;BMP280;66218;48.928;9.140;2023-06-05T11:47:27;98584.56;;;26.43
77223;BMP280;66218;48.928;9.140;2023-06-05T11:50:07;98575.72;;;26.34
77223;BMP280;66218;48.928;9.140;2023-06-05T11:52:33;98577.63;;;26.40
77223;BMP280;66218;48.928;9.140;2023-06-05T11:55:10;98574.31;;;26.52
77223;BMP280;66218;48.928;9.140;2023-06-05T11:57:44;98576.47;;;26.33
77223;BMP280;66218;48.928;9.140;2023-06-05T12:00:10;98582.59;;;26.20
77223;BMP280;66218;48.928;9.140;2023-06-05T12:02:41;98575.09;;;26.50
77223;BMP280;66218;48.928;9.140;2023-06-05T12:05:08;98584.09;;;26.74
77223;BMP280;66218;48.928;9.140;2023-06-05T12:07:34;98572.13;;;26.71
77223;BMP280;66218;48.928;9.140;2023-06-05T12:10:11;98580.00;;;26.52
77223;BMP280;66218;48.928;9.140;2023-06-05T12:12:56;98579.84;;;26.73
77223;BMP280;66218;48.928;9.140;2023-06-05T12:15:22;98582.50;;;26.95
77223;BMP280;66218;48.928;9.140;2023-06-05T12:17:50;98568.84;;;26.83
77223;BMP280;66218;48.928;9.140;2023-06-05T12:20:17;98567.94;;;26.70
77223;BMP280;66218;48.928;9.140;2023-06-05T12:22:42;98566.25;;;26.23
77223;BMP280;66218;48.928;9.140;2023-06-05T12:25:21;98557.78;;;26.04
77223;BMP280;66218;48.928;9.140;2023-06-05T12:27:47;98569.44;;;25.75
77223;BMP280;66218;48.928;9.140;2023-06-05T12:30:14;98561.88;;;26.07
77223;BMP280;66218;48.928;9.140;2023-06-05T12:32:41;98560.25;;;26.50
77223;BMP280;66218;48.928;9.140;2023-06-05T12:35:22;98548.16;;;27.04
77223;BMP280;66218;48.928;9.140;2023-06-05T12:37:48;98547.09;;;27.45
77223;BMP280;66218;48.928;9.140;2023-06-05T12:40:15;98549.50;;;27.55
77223;BMP280;66218;48.928;9.140;2023-06-05T12:42:46;98544.16;;;27.63
77223;BMP280;66218;48.928;9.140;2023-06-05T12:45:11;98544.94;;;27.93
77223;BMP280;66218;48.928;9.140;2023-06-05T12:47:37;98543.66;;;28.05
77223;BMP280;66218;48.928;9.140;2023-06-05T12:50:04;98534.44;;;27.58
77223;BMP280;66218;48.928;9.140;2023-06-05T12:52:31;98542.50;;;27.20
77223;BMP280;66218;48.928;9.140;2023-06-05T12:54:56;98540.25;;;27.23
77223;BMP280;66218;48.928;9.140;2023-06-05T12:57:22;98540.69;;;27.29
77223;BMP280;66218;48.928;9.140;2023-06-05T12:59:48;98537.56;;;27.35
77223;BMP280;66218;48.928;9.140;2023-06-05T13:02:14;98532.31;;;27.90
77223;BMP280;66218;48.928;9.140;2023-06-05T13:04:39;98526.47;;;28.38
77223;BMP280;66218;48.928;9.140;2023-06-05T13:07:05;98531.56;;;28.51
77223;BMP280;66218;48.928;9.140;2023-06-05T13:09:31;98528.13;;;28.48
77223;BMP280;66218;48.928;9.140;2023-06-05T13:11:57;98538.28;;;28.14
77223;BMP280;66218;48.928;9.140;2023-06-05T13:14:24;98534.06;;;27.98
77223;BMP280;66218;48.928;9.140;2023-06-05T13:16:50;98534.44;;;27.58
77223;BMP280;66218;48.928;9.140;2023-06-05T13:19:15;98524.97;;;27.16
77223;BMP280;66218;48.928;9.140;2023-06-05T13:21:40;98517.00;;;26.87
77223;BMP280;66218;48.928;9.140;2023-06-05T13:24:05;98520.97;;;26.58
77223;BMP280;66218;48.928;9.140;2023-06-05T13:26:31;98532.50;;;26.71
77223;BMP280;66218;48.928;9.140;2023-06-05T13:28:56;98521.78;;;27.24
77223;BMP280;66218;48.928;9.140;2023-06-05T13:31:21;98523.69;;;27.61
77223;BMP280;66218;48.928;9.140;2023-06-05T13:33:47;98517.06;;;27.66
77223;BMP280;66218;48.928;9.140;2023-06-05T13:36:12;98515.53;;;27.69
77223;BMP280;66218;48.928;9.140;2023-06-05T13:38:37;98516.53;;;27.79
77223;BMP280;66218;48.928;9.140;2023-06-05T13:41:04;98510.06;;;27.80
77223;BMP280;66218;48.928;9.140;2023-06-05T13:43:29;98508.63;;;27.96
77223;BMP280;66218;48.928;9.140;2023-06-05T13:45:55;98511.38;;;27.98
77223;BMP280;66218;48.928;9.140;2023-06-05T13:48:20;98506.03;;;28.06
77223;BMP280;66218;48.928;9.140;2023-06-05T13:50:45;98506.78;;;28.05
77223;BMP280;66218;48.928;9.140;2023-06-05T13:53:11;98500.53;;;28.17
77223;BMP280;66218;48.928;9.140;2023-06-05T13:55:36;98494.25;;;28.29
77223;BMP280;66218;48.928;9.140;2023-06-05T13:58:01;98498.66;;;27.97
77223;BMP280;66218;48.928;9.140;2023-06-05T14:00:30;98502.66;;;27.87
77223;BMP280;66218;48.928;9.140;2023-06-05T14:02:56;98502.44;;;27.77
77223;BMP280;66218;48.928;9.140;2023-06-05T14:05:21;98497.34;;;27.79
77223;BMP280;66218;48.928;9.140;2023-06-05T14:07:46;98497.47;;;27.92
77223;BMP280;66218;48.928;9.140;2023-06-05T14:10:14;98489.72;;;27.76
77223;BMP280;66218;48.928;9.140;2023-06-05T14:12:39;98491.91;;;27.90
77223;BMP280;66218;48.928;9.140;2023-06-05T14:15:04;98499.31;;;27.83
77223;BMP280;66218;48.928;9.140;2023-06-05T14:17:30;98485.34;;;27.47
77223;BMP280;66218;48.928;9.140;2023-06-05T14:19:55;98486.19;;;26.95
77223;BMP280;66218;48.928;9.140;2023-06-05T14:22:21;98487.03;;;26.92
77223;BMP280;66218;48.928;9.140;2023-06-05T14:24:46;98478.28;;;27.15